Time;durP1;ratioP1;P1;durP2;ratioP2;P2;SDS_P1;SDS_P2;PMS_P1;PMS_P2;Temp;Humidity;BMP_temperature;BMP_pressure;BME280_temperature;BME280_humidity;BME280_pressure;Samples;Min_cycle;Max_cycle;Signal;HPM_P1;HPM_P2
2020/11/05 00:00:58;;;;;;;19.1;13.15;;;;;;;7.98;100;96741.63;;;;
2020/11/05 00:01:58;;;;;;;16.65;13.2;;;;;;;8.01;100;96754.71;;;;
2020/11/05 00:03:00;;;;;;;16.65;13.2;;;;;;;8.01;100;96754.71;;;;
2020/11/05 00:04:00;;;;;;;16.65;13.2;;;;;;;8.01;100;96754.71;;;;
2020/11/05 00:05:02;;;;;;;16.65;13.2;;;;;;;8.01;100;96754.71;;;;
2020/11/05 00:06:04;;;;;;;16.65;13.2;;;;;;;8.01;100;96754.71;;;;
2020/11/05 00:07:05;;;;;;;16.65;13.2;;;;;;;8.01;100;96754.71;;;;
2020/11/05 00:08:08;;;;;;;16.65;13.2;;;;;;;8.01;100;96754.71;;;;
2020/11/05 00:09:09;;;;;;;16.65;13.2;;;;;;;8.01;100;96754.71;;;;
2020/11/05 00:10:09;;;;;;;16.65;13.2;;;;;;;8.01;100;96754.71;;;;
2020/11/05 00:11:27;;;;;;;16.65;13.2;;;;;;;8.01;100;96754.71;;;;
2020/11/05 00:12:27;;;;;;;17.45;12.7;;;;;;;7.99;100;96751.85;;;;
2020/11/05 00:13:45;;;;;;;17.45;12.7;;;;;;;7.99;100;96751.85;;;;
2020/11/05 00:14:49;;;;;;;17.45;12.7;;;;;;;7.99;100;96751.85;;;;
2020/11/05 00:15:49;;;;;;;17.45;12.7;;;;;;;7.99;100;96751.85;;;;
2020/11/05 00:16:53;;;;;;;17.45;12.7;;;;;;;7.99;100;96751.85;;;;
2020/11/05 00:17:54;;;;;;;17.45;12.7;;;;;;;7.99;100;96751.85;;;;
2020/11/05 00:18:58;;;;;;;17.45;12.7;;;;;;;7.99;100;96751.85;;;;
2020/11/05 00:19:59;;;;;;;17.45;12.7;;;;;;;7.99;100;96751.85;;;;
2020/11/05 00:20:59;;;;;;;17.45;12.7;;;;;;;7.99;100;96751.85;;;;
2020/11/05 00:22:06;;;;;;;17.45;12.7;;;;;;;7.99;100;96751.85;;;;
2020/11/05 00:23:06;;;;;;;18.8;13.5;;;;;;;8.02;100;96761.74;;;;
2020/11/05 00:24:07;;;;;;;18.8;13.5;;;;;;;8.02;100;96761.74;;;;
2020/11/05 00:25:19;;;;;;;18.8;13.5;;;;;;;8.02;100;96761.74;;;;
2020/11/05 00:26:20;;;;;;;18.8;13.5;;;;;;;8.02;100;96761.74;;;;
2020/11/05 00:27:44;;;;;;;18.8;13.5;;;;;;;8.02;100;96761.74;;;;
2020/11/05 00:28:44;;;;;;;18.8;13.5;;;;;;;8.02;100;96761.74;;;;
2020/11/05 00:29:46;;;;;;;18.8;13.5;;;;;;;8.02;100;96761.74;;;;
2020/11/05 00:30:46;;;;;;;18.8;13.5;;;;;;;8.02;100;96761.74;;;;
2020/11/05 00:31:56;;;;;;;18.8;13.5;;;;;;;8.02;100;96761.74;;;;
2020/11/05 00:32:56;;;;;;;18.8;13.5;;;;;;;8.02;100;96761.74;;;;
2020/11/05 00:34:06;;;;;;;19.2;12.65;;;;;;;8;100;96766.06;;;;
2020/11/05 00:35:17;;;;;;;19.2;12.65;;;;;;;8;100;96766.06;;;;
2020/11/05 00:36:17;;;;;;;19.2;12.65;;;;;;;8;100;96766.06;;;;
2020/11/05 00:37:22;;;;;;;19.2;12.65;;;;;;;8;100;96766.06;;;;
2020/11/05 00:38:31;;;;;;;19.2;12.65;;;;;;;8;100;96766.06;;;;
2020/11/05 00:39:31;;;;;;;19.2;12.65;;;;;;;8;100;96766.06;;;;
2020/11/05 00:40:46;;;;;;;19.2;12.65;;;;;;;8;100;96766.06;;;;
2020/11/05 00:41:46;;;;;;;19.2;12.65;;;;;;;8;100;96766.06;;;;
2020/11/05 00:42:55;;;;;;;19.2;12.65;;;;;;;8;100;96766.06;;;;
2020/11/05 00:43:55;;;;;;;18.25;14.3;;;;;;;8.04;100;96758.89;;;;
2020/11/05 00:44:56;;;;;;;18.25;14.3;;;;;;;8.04;100;96758.89;;;;
2020/11/05 00:45:58;;;;;;;18.25;14.3;;;;;;;8.04;100;96758.89;;;;
2020/11/05 00:46:59;;;;;;;18.25;14.3;;;;;;;8.04;100;96758.89;;;;
2020/11/05 00:48:03;;;;;;;18.25;14.3;;;;;;;8.04;100;96758.89;;;;
2020/11/05 00:49:07;;;;;;;18.25;14.3;;;;;;;8.04;100;96758.89;;;;
2020/11/05 00:50:07;;;;;;;18.25;14.3;;;;;;;8.04;100;96758.89;;;;
2020/11/05 00:51:08;;;;;;;18.25;14.3;;;;;;;8.04;100;96758.89;;;;
2020/11/05 00:52:08;;;;;;;18.25;14.3;;;;;;;8.04;100;96758.89;;;;
2020/11/05 00:53:11;;;;;;;18.25;14.3;;;;;;;8.04;100;96758.89;;;;
2020/11/05 00:54:27;;;;;;;18.25;14.3;;;;;;;8.04;100;96758.89;;;;
2020/11/05 00:55:49;;;;;;;21.35;13.7;;;;;;;8;100;96775.48;;;;
2020/11/05 00:56:52;;;;;;;21.35;13.7;;;;;;;8;100;96775.48;;;;
2020/11/05 00:57:52;;;;;;;21.35;13.7;;;;;;;8;100;96775.48;;;;
2020/11/05 00:58:53;;;;;;;21.35;13.7;;;;;;;8;100;96775.48;;;;
2020/11/05 00:59:54;;;;;;;21.35;13.7;;;;;;;8;100;96775.48;;;;
2020/11/05 01:00:57;;;;;;;21.35;13.7;;;;;;;8;100;96775.48;;;;
2020/11/05 01:02:07;;;;;;;21.35;13.7;;;;;;;8;100;96775.48;;;;
2020/11/05 01:03:08;;;;;;;21.35;13.7;;;;;;;8;100;96775.48;;;;
2020/11/05 01:04:12;;;;;;;21.35;13.7;;;;;;;8;100;96775.48;;;;
2020/11/05 01:05:12;;;;;;;20.15;14.85;;;;;;;8.04;100;96776.37;;;;
2020/11/05 01:06:13;;;;;;;20.15;14.85;;;;;;;8.04;100;96776.37;;;;
2020/11/05 01:07:33;;;;;;;20.15;14.85;;;;;;;8.04;100;96776.37;;;;
2020/11/05 01:08:34;;;;;;;20.15;14.85;;;;;;;8.04;100;96776.37;;;;
2020/11/05 01:09:56;;;;;;;20.15;14.85;;;;;;;8.04;100;96776.37;;;;
2020/11/05 01:10:57;;;;;;;20.15;14.85;;;;;;;8.04;100;96776.37;;;;
2020/11/05 01:12:01;;;;;;;20.15;14.85;;;;;;;8.04;100;96776.37;;;;
2020/11/05 01:13:03;;;;;;;20.15;14.85;;;;;;;8.04;100;96776.37;;;;
2020/11/05 01:14:03;;;;;;;20.15;14.85;;;;;;;8.04;100;96776.37;;;;
2020/11/05 01:15:04;;;;;;;20.15;14.85;;;;;;;8.04;100;96776.37;;;;
2020/11/05 01:16:04;;;;;;;24.15;15.1;;;;;;;7.99;100;96770.18;;;;
2020/11/05 01:17:08;;;;;;;24.15;15.1;;;;;;;7.99;100;96770.18;;;;
2020/11/05 01:18:09;;;;;;;24.15;15.1;;;;;;;7.99;100;96770.18;;;;
2020/11/05 01:19:27;;;;;;;24.15;15.1;;;;;;;7.99;100;96770.18;;;;
2020/11/05 01:20:28;;;;;;;24.15;15.1;;;;;;;7.99;100;96770.18;;;;
2020/11/05 01:21:29;;;;;;;24.15;15.1;;;;;;;7.99;100;96770.18;;;;
2020/11/05 01:22:31;;;;;;;24.15;15.1;;;;;;;7.99;100;96770.18;;;;
2020/11/05 01:23:45;;;;;;;24.15;15.1;;;;;;;7.99;100;96770.18;;;;
2020/11/05 01:24:46;;;;;;;24.15;15.1;;;;;;;7.99;100;96770.18;;;;
2020/11/05 01:26:03;;;;;;;24.15;15.1;;;;;;;7.99;100;96770.18;;;;
2020/11/05 01:27:04;;;;;;;20.1;14.7;;;;;;;8.01;100;96769.49;;;;
2020/11/05 01:28:07;;;;;;;20.1;14.7;;;;;;;8.01;100;96769.49;;;;
2020/11/05 01:29:07;;;;;;;20.1;14.7;;;;;;;8.01;100;96769.49;;;;
2020/11/05 01:30:42;;;;;;;20.1;14.7;;;;;;;8.01;100;96769.49;;;;
2020/11/05 01:31:45;;;;;;;20.1;14.7;;;;;;;8.01;100;96769.49;;;;
2020/11/05 01:32:45;;;;;;;20.1;14.7;;;;;;;8.01;100;96769.49;;;;
2020/11/05 01:34:02;;;;;;;20.1;14.7;;;;;;;8.01;100;96769.49;;;;
2020/11/05 01:35:03;;;;;;;20.1;14.7;;;;;;;8.01;100;96769.49;;;;
2020/11/05 01:36:06;;;;;;;20.1;14.7;;;;;;;8.01;100;96769.49;;;;
2020/11/05 01:37:24;;;;;;;19.95;14.15;;;;;;;7.98;100;96763.14;;;;
2020/11/05 01:38:25;;;;;;;19.95;14.15;;;;;;;7.98;100;96763.14;;;;
2020/11/05 01:39:25;;;;;;;19.95;14.15;;;;;;;7.98;100;96763.14;;;;
2020/11/05 01:40:27;;;;;;;19.95;14.15;;;;;;;7.98;100;96763.14;;;;
2020/11/05 01:41:27;;;;;;;19.95;14.15;;;;;;;7.98;100;96763.14;;;;
2020/11/05 01:42:28;;;;;;;19.95;14.15;;;;;;;7.98;100;96763.14;;;;
2020/11/05 01:43:28;;;;;;;19.95;14.15;;;;;;;7.98;100;96763.14;;;;
2020/11/05 01:44:29;;;;;;;19.95;14.15;;;;;;;7.98;100;96763.14;;;;
2020/11/05 01:45:29;;;;;;;19.95;14.15;;;;;;;7.98;100;96763.14;;;;
2020/11/05 01:46:31;;;;;;;19.95;14.15;;;;;;;7.98;100;96763.14;;;;
2020/11/05 01:47:32;;;;;;;19.95;14.15;;;;;;;7.98;100;96763.14;;;;
2020/11/05 01:48:32;;;;;;;18.7;13.25;;;;;;;7.99;100;96772.44;;;;
2020/11/05 01:49:57;;;;;;;18.7;13.25;;;;;;;7.99;100;96772.44;;;;
2020/11/05 01:51:16;;;;;;;18.7;13.25;;;;;;;7.99;100;96772.44;;;;
2020/11/05 01:52:18;;;;;;;18.7;13.25;;;;;;;7.99;100;96772.44;;;;
2020/11/05 01:53:29;;;;;;;18.7;13.25;;;;;;;7.99;100;96772.44;;;;
2020/11/05 01:54:30;;;;;;;18.7;13.25;;;;;;;7.99;100;96772.44;;;;
2020/11/05 01:55:33;;;;;;;18.7;13.25;;;;;;;7.99;100;96772.44;;;;
2020/11/05 01:56:38;;;;;;;18.7;13.25;;;;;;;7.99;100;96772.44;;;;
2020/11/05 01:57:43;;;;;;;18.7;13.25;;;;;;;7.99;100;96772.44;;;;
2020/11/05 01:58:47;;;;;;;15.95;13;;;;;;;7.91;100;96768.52;;;;
2020/11/05 02:00:31;;;;;;;15.95;13;;;;;;;7.91;100;96768.52;;;;
2020/11/05 02:01:33;;;;;;;15.95;13;;;;;;;7.91;100;96768.52;;;;
2020/11/05 02:02:34;;;;;;;15.95;13;;;;;;;7.91;100;96768.52;;;;
2020/11/05 02:03:34;;;;;;;15.95;13;;;;;;;7.91;100;96768.52;;;;
2020/11/05 02:04:44;;;;;;;15.95;13;;;;;;;7.91;100;96768.52;;;;
2020/11/05 02:05:45;;;;;;;15.95;13;;;;;;;7.91;100;96768.52;;;;
2020/11/05 02:06:46;;;;;;;15.95;13;;;;;;;7.91;100;96768.52;;;;
2020/11/05 02:08:02;;;;;;;15.95;13;;;;;;;7.91;100;96768.52;;;;
2020/11/05 02:09:18;;;;;;;19.05;13.2;;;;;;;7.88;100;96765.66;;;;
2020/11/05 02:10:38;;;;;;;19.05;13.2;;;;;;;7.88;100;96765.66;;;;
2020/11/05 02:11:42;;;;;;;19.05;13.2;;;;;;;7.88;100;96765.66;;;;
2020/11/05 02:12:45;;;;;;;19.05;13.2;;;;;;;7.88;100;96765.66;;;;
2020/11/05 02:13:45;;;;;;;19.05;13.2;;;;;;;7.88;100;96765.66;;;;
2020/11/05 02:14:46;;;;;;;19.05;13.2;;;;;;;7.88;100;96765.66;;;;
2020/11/05 02:15:47;;;;;;;19.05;13.2;;;;;;;7.88;100;96765.66;;;;
2020/11/05 02:17:13;;;;;;;19.05;13.2;;;;;;;7.88;100;96765.66;;;;
2020/11/05 02:18:13;;;;;;;19.05;13.2;;;;;;;7.88;100;96765.66;;;;
2020/11/05 02:19:14;;;;;;;19.05;13.2;;;;;;;7.88;100;96765.66;;;;
2020/11/05 02:20:15;;;;;;;17.25;12.95;;;;;;;7.82;100;96755.63;;;;
2020/11/05 02:21:17;;;;;;;17.25;12.95;;;;;;;7.82;100;96755.63;;;;
2020/11/05 02:22:59;;;;;;;17.25;12.95;;;;;;;7.82;100;96755.63;;;;
2020/11/05 02:23:59;;;;;;;17.25;12.95;;;;;;;7.82;100;96755.63;;;;
2020/11/05 02:25:01;;;;;;;17.25;12.95;;;;;;;7.82;100;96755.63;;;;
2020/11/05 02:26:35;;;;;;;17.25;12.95;;;;;;;7.82;100;96755.63;;;;
2020/11/05 02:27:42;;;;;;;17.25;12.95;;;;;;;7.82;100;96755.63;;;;
2020/11/05 02:28:58;;;;;;;17.25;12.95;;;;;;;7.82;100;96755.63;;;;
2020/11/05 02:30:20;;;;;;;17.25;12.95;;;;;;;7.82;100;96755.63;;;;
2020/11/05 02:31:26;;;;;;;21.7;13.5;;;;;;;7.78;100;96760.23;;;;
2020/11/05 02:32:26;;;;;;;21.7;13.5;;;;;;;7.78;100;96760.23;;;;
2020/11/05 02:33:56;;;;;;;21.7;13.5;;;;;;;7.78;100;96760.23;;;;
2020/11/05 02:35:05;;;;;;;21.7;13.5;;;;;;;7.78;100;96760.23;;;;
2020/11/05 02:36:08;;;;;;;21.7;13.5;;;;;;;7.78;100;96760.23;;;;
2020/11/05 02:37:26;;;;;;;21.7;13.5;;;;;;;7.78;100;96760.23;;;;
2020/11/05 02:38:48;;;;;;;21.7;13.5;;;;;;;7.78;100;96760.23;;;;
2020/11/05 02:40:06;;;;;;;21.7;13.5;;;;;;;7.78;100;96760.23;;;;
2020/11/05 02:41:07;;;;;;;21.7;13.5;;;;;;;7.78;100;96760.23;;;;
2020/11/05 02:42:08;;;;;;;19.3;13.6;;;;;;;7.65;100;96743.87;;;;
2020/11/05 02:43:08;;;;;;;19.3;13.6;;;;;;;7.65;100;96743.87;;;;
2020/11/05 02:44:43;;;;;;;19.3;13.6;;;;;;;7.65;100;96743.87;;;;
2020/11/05 02:45:55;;;;;;;19.3;13.6;;;;;;;7.65;100;96743.87;;;;
2020/11/05 02:46:56;;;;;;;19.3;13.6;;;;;;;7.65;100;96743.87;;;;
2020/11/05 02:48:08;;;;;;;19.3;13.6;;;;;;;7.65;100;96743.87;;;;
2020/11/05 02:49:11;;;;;;;19.3;13.6;;;;;;;7.65;100;96743.87;;;;
2020/11/05 02:50:13;;;;;;;19.3;13.6;;;;;;;7.65;100;96743.87;;;;
2020/11/05 02:51:17;;;;;;;19.3;13.6;;;;;;;7.65;100;96743.87;;;;
2020/11/05 02:52:17;;;;;;;18.4;13.5;;;;;;;7.5;100;96745.18;;;;
2020/11/05 02:53:28;;;;;;;18.4;13.5;;;;;;;7.5;100;96745.18;;;;
2020/11/05 02:54:31;;;;;;;18.4;13.5;;;;;;;7.5;100;96745.18;;;;
2020/11/05 02:55:31;;;;;;;18.4;13.5;;;;;;;7.5;100;96745.18;;;;
2020/11/05 02:56:32;;;;;;;18.4;13.5;;;;;;;7.5;100;96745.18;;;;
2020/11/05 02:57:51;;;;;;;18.4;13.5;;;;;;;7.5;100;96745.18;;;;
2020/11/05 02:58:54;;;;;;;18.4;13.5;;;;;;;7.5;100;96745.18;;;;
2020/11/05 02:59:58;;;;;;;18.4;13.5;;;;;;;7.5;100;96745.18;;;;
2020/11/05 03:00:59;;;;;;;18.4;13.5;;;;;;;7.5;100;96745.18;;;;
2020/11/05 03:02:00;;;;;;;18.4;13.5;;;;;;;7.5;100;96745.18;;;;
2020/11/05 03:03:01;;;;;;;22.95;15.25;;;;;;;7.37;100;96764.7;;;;
2020/11/05 03:04:01;;;;;;;22.95;15.25;;;;;;;7.37;100;96764.7;;;;
2020/11/05 03:05:04;;;;;;;22.95;15.25;;;;;;;7.37;100;96764.7;;;;
2020/11/05 03:06:04;;;;;;;22.95;15.25;;;;;;;7.37;100;96764.7;;;;
2020/11/05 03:07:05;;;;;;;22.95;15.25;;;;;;;7.37;100;96764.7;;;;
2020/11/05 03:08:06;;;;;;;22.95;15.25;;;;;;;7.37;100;96764.7;;;;
2020/11/05 03:09:09;;;;;;;22.95;15.25;;;;;;;7.37;100;96764.7;;;;
2020/11/05 03:10:26;;;;;;;22.95;15.25;;;;;;;7.37;100;96764.7;;;;
2020/11/05 03:11:26;;;;;;;22.95;15.25;;;;;;;7.37;100;96764.7;;;;
2020/11/05 03:12:27;;;;;;;22.95;15.25;;;;;;;7.37;100;96764.7;;;;
2020/11/05 03:13:31;;;;;;;20.3;13.75;;;;;;;7.44;100;96765.23;;;;
2020/11/05 03:14:34;;;;;;;20.3;13.75;;;;;;;7.44;100;96765.23;;;;
2020/11/05 03:15:35;;;;;;;20.3;13.75;;;;;;;7.44;100;96765.23;;;;
2020/11/05 03:17:36;;;;;;;20.3;13.75;;;;;;;7.44;100;96765.23;;;;
2020/11/05 03:19:02;;;;;;;20.3;13.75;;;;;;;7.44;100;96765.23;;;;
2020/11/05 03:20:09;;;;;;;20.3;13.75;;;;;;;7.44;100;96765.23;;;;
2020/11/05 03:21:10;;;;;;;20.3;13.75;;;;;;;7.44;100;96765.23;;;;
2020/11/05 03:22:10;;;;;;;20.3;13.75;;;;;;;7.44;100;96765.23;;;;
2020/11/05 03:23:12;;;;;;;20.3;13.75;;;;;;;7.44;100;96765.23;;;;
2020/11/05 03:24:14;;;;;;;21.75;14.75;;;;;;;7.47;100;96765.28;;;;
2020/11/05 03:25:15;;;;;;;21.75;14.75;;;;;;;7.47;100;96765.28;;;;
2020/11/05 03:26:15;;;;;;;21.75;14.75;;;;;;;7.47;100;96765.28;;;;
2020/11/05 03:27:16;;;;;;;21.75;14.75;;;;;;;7.47;100;96765.28;;;;
2020/11/05 03:28:20;;;;;;;21.75;14.75;;;;;;;7.47;100;96765.28;;;;
2020/11/05 03:29:32;;;;;;;21.75;14.75;;;;;;;7.47;100;96765.28;;;;
2020/11/05 03:30:33;;;;;;;21.75;14.75;;;;;;;7.47;100;96765.28;;;;
2020/11/05 03:31:33;;;;;;;21.75;14.75;;;;;;;7.47;100;96765.28;;;;
2020/11/05 03:32:34;;;;;;;21.75;14.75;;;;;;;7.47;100;96765.28;;;;
2020/11/05 03:33:36;;;;;;;21.75;14.75;;;;;;;7.47;100;96765.28;;;;
2020/11/05 03:34:56;;;;;;;20.6;14.9;;;;;;;7.55;100;96773.3;;;;
2020/11/05 03:35:59;;;;;;;20.6;14.9;;;;;;;7.55;100;96773.3;;;;
2020/11/05 03:36:59;;;;;;;20.6;14.9;;;;;;;7.55;100;96773.3;;;;
2020/11/05 03:38:02;;;;;;;20.6;14.9;;;;;;;7.55;100;96773.3;;;;
2020/11/05 03:39:02;;;;;;;20.6;14.9;;;;;;;7.55;100;96773.3;;;;
2020/11/05 03:40:06;;;;;;;20.6;14.9;;;;;;;7.55;100;96773.3;;;;
2020/11/05 03:41:09;;;;;;;20.6;14.9;;;;;;;7.55;100;96773.3;;;;
2020/11/05 03:42:11;;;;;;;20.6;14.9;;;;;;;7.55;100;96773.3;;;;
2020/11/05 03:43:14;;;;;;;20.6;14.9;;;;;;;7.55;100;96773.3;;;;
2020/11/05 03:44:26;;;;;;;20.6;14.9;;;;;;;7.55;100;96773.3;;;;
2020/11/05 03:45:28;;;;;;;24.5;14.15;;;;;;;7.56;100;96774.11;;;;
2020/11/05 03:46:28;;;;;;;24.5;14.15;;;;;;;7.56;100;96774.11;;;;
2020/11/05 03:47:31;;;;;;;24.5;14.15;;;;;;;7.56;100;96774.11;;;;
2020/11/05 03:48:32;;;;;;;24.5;14.15;;;;;;;7.56;100;96774.11;;;;
2020/11/05 03:49:32;;;;;;;24.5;14.15;;;;;;;7.56;100;96774.11;;;;
2020/11/05 03:50:35;;;;;;;24.5;14.15;;;;;;;7.56;100;96774.11;;;;
2020/11/05 03:51:37;;;;;;;24.5;14.15;;;;;;;7.56;100;96774.11;;;;
2020/11/05 03:52:38;;;;;;;24.5;14.15;;;;;;;7.56;100;96774.11;;;;
2020/11/05 03:53:39;;;;;;;24.5;14.15;;;;;;;7.56;100;96774.11;;;;
2020/11/05 03:54:42;;;;;;;24.5;14.15;;;;;;;7.56;100;96774.11;;;;
2020/11/05 03:55:50;;;;;;;24.5;14.15;;;;;;;7.56;100;96774.11;;;;
2020/11/05 03:56:50;;;;;;;23.6;15.35;;;;;;;7.63;100;96788.53;;;;
2020/11/05 03:57:51;;;;;;;23.6;15.35;;;;;;;7.63;100;96788.53;;;;
2020/11/05 03:58:52;;;;;;;23.6;15.35;;;;;;;7.63;100;96788.53;;;;
2020/11/05 03:59:53;;;;;;;23.6;15.35;;;;;;;7.63;100;96788.53;;;;
2020/11/05 04:01:26;;;;;;;23.6;15.35;;;;;;;7.63;100;96788.53;;;;
2020/11/05 04:02:29;;;;;;;23.6;15.35;;;;;;;7.63;100;96788.53;;;;
2020/11/05 04:03:34;;;;;;;23.6;15.35;;;;;;;7.63;100;96788.53;;;;
2020/11/05 04:04:35;;;;;;;23.6;15.35;;;;;;;7.63;100;96788.53;;;;
2020/11/05 04:05:39;;;;;;;23.6;15.35;;;;;;;7.63;100;96788.53;;;;
2020/11/05 04:06:43;;;;;;;24.2;16.05;;;;;;;7.66;100;96801.59;;;;
2020/11/05 04:07:43;;;;;;;24.2;16.05;;;;;;;7.66;100;96801.59;;;;
2020/11/05 04:08:46;;;;;;;24.2;16.05;;;;;;;7.66;100;96801.59;;;;
2020/11/05 04:09:47;;;;;;;24.2;16.05;;;;;;;7.66;100;96801.59;;;;
2020/11/05 04:10:49;;;;;;;24.2;16.05;;;;;;;7.66;100;96801.59;;;;
2020/11/05 04:11:56;;;;;;;24.2;16.05;;;;;;;7.66;100;96801.59;;;;
2020/11/05 04:12:56;;;;;;;24.2;16.05;;;;;;;7.66;100;96801.59;;;;
2020/11/05 04:14:08;;;;;;;24.2;16.05;;;;;;;7.66;100;96801.59;;;;
2020/11/05 04:15:08;;;;;;;24.2;16.05;;;;;;;7.66;100;96801.59;;;;
2020/11/05 04:16:24;;;;;;;24.2;16.05;;;;;;;7.66;100;96801.59;;;;
2020/11/05 04:17:30;;;;;;;21.45;16.7;;;;;;;7.69;100;96807.44;;;;
2020/11/05 04:18:31;;;;;;;21.45;16.7;;;;;;;7.69;100;96807.44;;;;
2020/11/05 04:19:31;;;;;;;21.45;16.7;;;;;;;7.69;100;96807.44;;;;
2020/11/05 04:20:32;;;;;;;21.45;16.7;;;;;;;7.69;100;96807.44;;;;
2020/11/05 04:21:32;;;;;;;21.45;16.7;;;;;;;7.69;100;96807.44;;;;
2020/11/05 04:23:38;;;;;;;21.45;16.7;;;;;;;7.69;100;96807.44;;;;
2020/11/05 04:24:44;;;;;;;21.45;16.7;;;;;;;7.69;100;96807.44;;;;
2020/11/05 04:25:46;;;;;;;21.45;16.7;;;;;;;7.69;100;96807.44;;;;
2020/11/05 04:27:02;;;;;;;21.45;16.7;;;;;;;7.69;100;96807.44;;;;
2020/11/05 04:28:02;;;;;;;25.35;17.85;;;;;;;7.81;100;96816.31;;;;
2020/11/05 04:29:06;;;;;;;25.35;17.85;;;;;;;7.81;100;96816.31;;;;
2020/11/05 04:30:07;;;;;;;25.35;17.85;;;;;;;7.81;100;96816.31;;;;
2020/11/05 04:31:19;;;;;;;25.35;17.85;;;;;;;7.81;100;96816.31;;;;
2020/11/05 04:32:20;;;;;;;25.35;17.85;;;;;;;7.81;100;96816.31;;;;
2020/11/05 04:33:20;;;;;;;25.35;17.85;;;;;;;7.81;100;96816.31;;;;
2020/11/05 04:34:39;;;;;;;25.35;17.85;;;;;;;7.81;100;96816.31;;;;
2020/11/05 04:35:42;;;;;;;25.35;17.85;;;;;;;7.81;100;96816.31;;;;
2020/11/05 04:36:43;;;;;;;25.35;17.85;;;;;;;7.81;100;96816.31;;;;
2020/11/05 04:37:43;;;;;;;25.35;17.85;;;;;;;7.81;100;96816.31;;;;
2020/11/05 04:38:59;;;;;;;26.35;19.1;;;;;;;7.83;100;96817.81;;;;
2020/11/05 04:40:00;;;;;;;26.35;19.1;;;;;;;7.83;100;96817.81;;;;
2020/11/05 04:41:23;;;;;;;26.35;19.1;;;;;;;7.83;100;96817.81;;;;
2020/11/05 04:44:41;;;;;;;26.35;19.1;;;;;;;7.83;100;96817.81;;;;
2020/11/05 04:46:16;;;;;;;26.35;19.1;;;;;;;7.83;100;96817.81;;;;
2020/11/05 04:47:22;;;;;;;26.35;19.1;;;;;;;7.83;100;96817.81;;;;
2020/11/05 04:48:27;;;;;;;26.35;19.1;;;;;;;7.83;100;96817.81;;;;
2020/11/05 04:49:27;;;;;;;27.8;19.1;;;;;;;7.89;100;96800.55;;;;
2020/11/05 04:50:29;;;;;;;27.8;19.1;;;;;;;7.89;100;96800.55;;;;
2020/11/05 04:51:31;;;;;;;27.8;19.1;;;;;;;7.89;100;96800.55;;;;
2020/11/05 04:52:34;;;;;;;27.8;19.1;;;;;;;7.89;100;96800.55;;;;
2020/11/05 04:53:34;;;;;;;27.8;19.1;;;;;;;7.89;100;96800.55;;;;
2020/11/05 04:54:35;;;;;;;27.8;19.1;;;;;;;7.89;100;96800.55;;;;
2020/11/05 04:55:46;;;;;;;27.8;19.1;;;;;;;7.89;100;96800.55;;;;
2020/11/05 04:56:51;;;;;;;27.8;19.1;;;;;;;7.89;100;96800.55;;;;
2020/11/05 04:57:51;;;;;;;27.8;19.1;;;;;;;7.89;100;96800.55;;;;
2020/11/05 04:59:01;;;;;;;27.8;19.1;;;;;;;7.89;100;96800.55;;;;
2020/11/05 05:00:05;;;;;;;29.65;20.5;;;;;;;7.87;100;96797.63;;;;
2020/11/05 05:01:05;;;;;;;29.65;20.5;;;;;;;7.87;100;96797.63;;;;
2020/11/05 05:02:06;;;;;;;29.65;20.5;;;;;;;7.87;100;96797.63;;;;
2020/11/05 05:03:38;;;;;;;29.65;20.5;;;;;;;7.87;100;96797.63;;;;
2020/11/05 05:04:41;;;;;;;29.65;20.5;;;;;;;7.87;100;96797.63;;;;
2020/11/05 05:05:42;;;;;;;29.65;20.5;;;;;;;7.87;100;96797.63;;;;
2020/11/05 05:06:43;;;;;;;29.65;20.5;;;;;;;7.87;100;96797.63;;;;
2020/11/05 05:08:16;;;;;;;29.65;20.5;;;;;;;7.87;100;96797.63;;;;
2020/11/05 05:09:18;;;;;;;29.65;20.5;;;;;;;7.87;100;96797.63;;;;
2020/11/05 05:10:19;;;;;;;29.65;20.5;;;;;;;7.87;100;96797.63;;;;
2020/11/05 05:11:20;;;;;;;30.1;20.1;;;;;;;7.82;100;96810.75;;;;
2020/11/05 05:12:22;;;;;;;30.1;20.1;;;;;;;7.82;100;96810.75;;;;
2020/11/05 05:13:23;;;;;;;30.1;20.1;;;;;;;7.82;100;96810.75;;;;
2020/11/05 05:14:26;;;;;;;30.1;20.1;;;;;;;7.82;100;96810.75;;;;
2020/11/05 05:15:26;;;;;;;30.1;20.1;;;;;;;7.82;100;96810.75;;;;
2020/11/05 05:16:33;;;;;;;30.1;20.1;;;;;;;7.82;100;96810.75;;;;
2020/11/05 05:17:35;;;;;;;30.1;20.1;;;;;;;7.82;100;96810.75;;;;
2020/11/05 05:18:41;;;;;;;30.1;20.1;;;;;;;7.82;100;96810.75;;;;
2020/11/05 05:19:47;;;;;;;30.1;20.1;;;;;;;7.82;100;96810.75;;;;
2020/11/05 05:20:53;;;;;;;30.1;20.1;;;;;;;7.82;100;96810.75;;;;
2020/11/05 05:22:07;;;;;;;28.75;19.7;;;;;;;7.8;100;96827.6;;;;
2020/11/05 05:23:18;;;;;;;28.75;19.7;;;;;;;7.8;100;96827.6;;;;
2020/11/05 05:24:18;;;;;;;28.75;19.7;;;;;;;7.8;100;96827.6;;;;
2020/11/05 05:25:20;;;;;;;28.75;19.7;;;;;;;7.8;100;96827.6;;;;
2020/11/05 05:26:44;;;;;;;28.75;19.7;;;;;;;7.8;100;96827.6;;;;
2020/11/05 05:27:46;;;;;;;28.75;19.7;;;;;;;7.8;100;96827.6;;;;
2020/11/05 05:28:47;;;;;;;28.75;19.7;;;;;;;7.8;100;96827.6;;;;
2020/11/05 05:29:50;;;;;;;28.75;19.7;;;;;;;7.8;100;96827.6;;;;
2020/11/05 05:31:04;;;;;;;28.75;19.7;;;;;;;7.8;100;96827.6;;;;
2020/11/05 05:32:06;;;;;;;27.8;18.7;;;;;;;7.79;100;96828.6;;;;
2020/11/05 05:33:18;;;;;;;27.8;18.7;;;;;;;7.79;100;96828.6;;;;
2020/11/05 05:34:38;;;;;;;27.8;18.7;;;;;;;7.79;100;96828.6;;;;
2020/11/05 05:36:10;;;;;;;27.8;18.7;;;;;;;7.79;100;96828.6;;;;
2020/11/05 05:37:11;;;;;;;27.8;18.7;;;;;;;7.79;100;96828.6;;;;
2020/11/05 05:38:18;;;;;;;27.8;18.7;;;;;;;7.79;100;96828.6;;;;
2020/11/05 05:39:18;;;;;;;27.8;18.7;;;;;;;7.79;100;96828.6;;;;
2020/11/05 05:40:38;;;;;;;27.8;18.7;;;;;;;7.79;100;96828.6;;;;
2020/11/05 05:41:40;;;;;;;27.8;18.7;;;;;;;7.79;100;96828.6;;;;
2020/11/05 05:42:44;;;;;;;28.15;18.8;;;;;;;7.79;100;96841.63;;;;
2020/11/05 05:43:44;;;;;;;28.15;18.8;;;;;;;7.79;100;96841.63;;;;
2020/11/05 05:44:56;;;;;;;28.15;18.8;;;;;;;7.79;100;96841.63;;;;
2020/11/05 05:46:09;;;;;;;28.15;18.8;;;;;;;7.79;100;96841.63;;;;
2020/11/05 05:47:15;;;;;;;28.15;18.8;;;;;;;7.79;100;96841.63;;;;
2020/11/05 05:48:17;;;;;;;28.15;18.8;;;;;;;7.79;100;96841.63;;;;
2020/11/05 05:49:17;;;;;;;28.15;18.8;;;;;;;7.79;100;96841.63;;;;
2020/11/05 05:50:22;;;;;;;28.15;18.8;;;;;;;7.79;100;96841.63;;;;
2020/11/05 05:51:36;;;;;;;28.15;18.8;;;;;;;7.79;100;96841.63;;;;
2020/11/05 05:52:40;;;;;;;28.15;18.8;;;;;;;7.79;100;96841.63;;;;
2020/11/05 05:57:52;;;;;;;25.05;18.65;;;;;;;7.86;100;96844.87;;;;
2020/11/05 05:58:52;;;;;;;25.05;18.65;;;;;;;7.86;100;96844.87;;;;
2020/11/05 05:59:58;;;;;;;25.05;18.65;;;;;;;7.86;100;96844.87;;;;
2020/11/05 06:00:59;;;;;;;25.05;18.65;;;;;;;7.86;100;96844.87;;;;
2020/11/05 06:02:01;;;;;;;25.05;18.65;;;;;;;7.86;100;96844.87;;;;
2020/11/05 06:03:13;;;;;;;25.05;18.65;;;;;;;7.86;100;96844.87;;;;
2020/11/05 06:04:14;;;;;;;27.3;19.5;;;;;;;7.86;100;96855.2;;;;
2020/11/05 06:05:15;;;;;;;27.3;19.5;;;;;;;7.86;100;96855.2;;;;
2020/11/05 06:06:17;;;;;;;27.3;19.5;;;;;;;7.86;100;96855.2;;;;
2020/11/05 06:07:17;;;;;;;27.3;19.5;;;;;;;7.86;100;96855.2;;;;
2020/11/05 06:08:20;;;;;;;27.3;19.5;;;;;;;7.86;100;96855.2;;;;
2020/11/05 06:09:50;;;;;;;27.3;19.5;;;;;;;7.86;100;96855.2;;;;
2020/11/05 06:10:54;;;;;;;27.3;19.5;;;;;;;7.86;100;96855.2;;;;
2020/11/05 06:11:54;;;;;;;27.3;19.5;;;;;;;7.86;100;96855.2;;;;
2020/11/05 06:13:04;;;;;;;27.3;19.5;;;;;;;7.86;100;96855.2;;;;
2020/11/05 06:14:37;;;;;;;27.9;20.75;;;;;;;7.88;100;96866.62;;;;
2020/11/05 06:15:41;;;;;;;27.9;20.75;;;;;;;7.88;100;96866.62;;;;
2020/11/05 06:17:06;;;;;;;27.9;20.75;;;;;;;7.88;100;96866.62;;;;
2020/11/05 06:18:11;;;;;;;27.9;20.75;;;;;;;7.88;100;96866.62;;;;
2020/11/05 06:19:28;;;;;;;27.9;20.75;;;;;;;7.88;100;96866.62;;;;
2020/11/05 06:20:43;;;;;;;27.9;20.75;;;;;;;7.88;100;96866.62;;;;
2020/11/05 06:21:44;;;;;;;27.9;20.75;;;;;;;7.88;100;96866.62;;;;
2020/11/05 06:23:05;;;;;;;27.9;20.75;;;;;;;7.88;100;96866.62;;;;
2020/11/05 06:25:10;;;;;;;27.9;20.75;;;;;;;7.88;100;96866.62;;;;
2020/11/05 06:26:18;;;;;;;24.45;18.1;;;;;;;7.99;100;96878.69;;;;
2020/11/05 06:30:24;;;;;;;24.45;18.1;;;;;;;7.99;100;96878.69;;;;
2020/11/05 06:31:47;;;;;;;24.45;18.1;;;;;;;7.99;100;96878.69;;;;
2020/11/05 06:32:49;;;;;;;24.45;18.1;;;;;;;7.99;100;96878.69;;;;
2020/11/05 06:34:24;;;;;;;24.45;18.1;;;;;;;7.99;100;96878.69;;;;
2020/11/05 06:35:49;;;;;;;24.45;18.1;;;;;;;7.99;100;96878.69;;;;
2020/11/05 06:36:50;;;;;;;27.8;19.15;;;;;;;8.03;100;96899.33;;;;
2020/11/05 06:37:53;;;;;;;27.8;19.15;;;;;;;8.03;100;96899.33;;;;
2020/11/05 06:39:30;;;;;;;27.8;19.15;;;;;;;8.03;100;96899.33;;;;
2020/11/05 06:40:33;;;;;;;27.8;19.15;;;;;;;8.03;100;96899.33;;;;
2020/11/05 06:41:34;;;;;;;27.8;19.15;;;;;;;8.03;100;96899.33;;;;
2020/11/05 06:42:35;;;;;;;27.8;19.15;;;;;;;8.03;100;96899.33;;;;
2020/11/05 06:43:40;;;;;;;27.8;19.15;;;;;;;8.03;100;96899.33;;;;
2020/11/05 06:44:41;;;;;;;27.8;19.15;;;;;;;8.03;100;96899.33;;;;
2020/11/05 06:45:45;;;;;;;27.8;19.15;;;;;;;8.03;100;96899.33;;;;
2020/11/05 06:46:46;;;;;;;26.75;19.65;;;;;;;8.09;100;96907.95;;;;
2020/11/05 06:47:59;;;;;;;26.75;19.65;;;;;;;8.09;100;96907.95;;;;
2020/11/05 06:49:00;;;;;;;26.75;19.65;;;;;;;8.09;100;96907.95;;;;
2020/11/05 06:50:00;;;;;;;26.75;19.65;;;;;;;8.09;100;96907.95;;;;
2020/11/05 06:51:19;;;;;;;26.75;19.65;;;;;;;8.09;100;96907.95;;;;
2020/11/05 06:52:19;;;;;;;26.75;19.65;;;;;;;8.09;100;96907.95;;;;
2020/11/05 06:53:20;;;;;;;26.75;19.65;;;;;;;8.09;100;96907.95;;;;
2020/11/05 06:54:24;;;;;;;26.75;19.65;;;;;;;8.09;100;96907.95;;;;
2020/11/05 06:55:25;;;;;;;26.75;19.65;;;;;;;8.09;100;96907.95;;;;
2020/11/05 06:56:25;;;;;;;26.75;19.65;;;;;;;8.09;100;96907.95;;;;
2020/11/05 06:57:26;;;;;;;29.7;20.6;;;;;;;8.15;100;96920.67;;;;